Time;durP1;ratioP1;P1;durP2;ratioP2;P2;SDS_P1;SDS_P2;PMS_P1;PMS_P2;Temp;Humidity;BMP_temperature;BMP_pressure;BME280_temperature;BME280_humidity;BME280_pressure;Samples;Min_cycle;Max_cycle;Signal;HPM_P1;HPM_P2
2021/05/15 00:00:06;;;;;;;2.00;1.90;;;8.60;99.90;;;;;;5001198;28;20436;-57
2021/05/15 00:02:31;;;;;;;2.70;1.33;;;8.50;99.90;;;;;;4995672;28;20834;-57
2021/05/15 00:04:57;;;;;;;1.90;1.80;;;8.50;99.90;;;;;;5009021;28;20431;-60
2021/05/15 00:07:23;;;;;;;2.87;1.90;;;8.50;99.90;;;;;;5003103;28;20673;-61
2021/05/15 00:09:48;;;;;;;4.83;3.00;;;8.40;99.90;;;;;;5002847;28;20418;-59
2021/05/15 00:12:14;;;;;;;2.20;2.00;;;8.40;99.90;;;;;;5012705;28;20306;-61
2021/05/15 00:14:40;;;;;;;2.20;2.00;;;8.40;99.90;;;;;;5011665;28;20196;-60
2021/05/15 00:17:05;;;;;;;2.87;2.30;;;8.30;99.90;;;;;;5000515;28;20180;-59
2021/05/15 00:19:31;;;;;;;2.23;1.63;;;8.30;99.90;;;;;;4995447;28;20303;-61
2021/05/15 00:21:57;;;;;;;2.20;2.00;;;8.20;99.90;;;;;;4999100;28;20638;-60
2021/05/15 00:24:23;;;;;;;2.20;1.87;;;8.20;99.90;;;;;;5006384;28;20528;-61
2021/05/15 00:26:48;;;;;;;2.13;2.03;;;8.20;99.90;;;;;;5004286;28;20578;-60
2021/05/15 00:29:14;;;;;;;8.00;2.30;;;8.10;99.90;;;;;;5010841;28;20184;-61
2021/05/15 00:31:40;;;;;;;2.73;1.80;;;8.10;99.90;;;;;;5009754;28;20238;-60
2021/05/15 00:34:05;;;;;;;3.40;2.00;;;8.00;99.90;;;;;;5003371;28;20674;-59
2021/05/15 00:36:31;;;;;;;3.53;2.20;;;8.00;99.90;;;;;;4998047;28;20184;-60
2021/05/15 00:38:57;;;;;;;3.20;2.60;;;8.00;99.90;;;;;;5010505;28;20537;-60
2021/05/15 00:41:22;;;;;;;2.53;2.33;;;7.90;99.90;;;;;;5001136;28;20191;-60
2021/05/15 00:46:46;;;;;;;3.70;2.30;;;7.90;99.90;;;;;;4987990;28;20657;-61
2021/05/15 00:49:13;;;;;;;3.17;2.40;;;7.80;99.90;;;;;;5019628;28;20426;-60
2021/05/15 00:51:41;;;;;;;4.07;2.07;;;7.80;99.90;;;;;;5003813;28;20181;-59
2021/05/15 00:54:10;;;;;;;5.40;2.47;;;7.80;99.90;;;;;;4997899;28;20448;-60
2021/05/15 00:56:36;;;;;;;6.80;2.27;;;7.70;99.90;;;;;;5005897;28;20439;-60
2021/05/15 00:59:02;;;;;;;7.83;2.10;;;7.60;99.90;;;;;;5005133;28;20819;-59
2021/05/15 01:01:28;;;;;;;5.10;1.97;;;7.60;99.90;;;;;;5008440;28;20188;-60
2021/05/15 01:03:54;;;;;;;2.63;2.00;;;7.60;99.90;;;;;;4999861;28;20470;-60
2021/05/15 01:06:20;;;;;;;3.20;2.17;;;7.50;99.90;;;;;;5005643;28;20432;-61
2021/05/15 01:08:46;;;;;;;2.50;1.90;;;7.50;99.90;;;;;;4992140;28;20635;-60
2021/05/15 01:11:19;;;;;;;2.50;2.23;;;7.50;99.90;;;;;;4998985;28;20437;-60
2021/05/15 01:14:03;;;;;;;8.00;2.60;;;7.40;99.90;;;;;;4996517;28;20197;-60
2021/05/15 01:16:32;;;;;;;4.53;3.00;;;7.40;99.90;;;;;;4993238;28;21141;-60
2021/05/15 01:18:58;;;;;;;9.60;3.73;;;7.40;99.90;;;;;;4992700;28;20447;-58
2021/05/15 01:21:24;;;;;;;6.13;3.20;;;7.30;99.90;;;;;;5006761;28;20432;-60
2021/05/15 01:23:50;;;;;;;5.30;2.70;;;7.30;99.90;;;;;;5002775;28;20550;-61
2021/05/15 01:26:25;;;;;;;5.17;1.97;;;7.20;99.90;;;;;;5008741;28;20852;-61
2021/05/15 01:28:52;;;;;;;1.80;1.70;;;7.20;99.90;;;;;;5000248;28;20716;-60
2021/05/15 01:31:18;;;;;;;2.23;2.03;;;7.20;99.90;;;;;;4997268;28;20434;-61
2021/05/15 01:33:44;;;;;;;2.03;1.93;;;7.10;99.90;;;;;;5000615;28;20468;-61
2021/05/15 01:36:10;;;;;;;3.63;2.13;;;7.10;99.90;;;;;;5006569;28;20438;-59
2021/05/15 01:38:37;;;;;;;2.10;1.93;;;7.10;99.90;;;;;;5016844;28;20611;-59
2021/05/15 01:41:11;;;;;;;4.50;2.23;;;7.10;99.90;;;;;;5004015;28;20806;-61
2021/05/15 01:43:38;;;;;;;12.23;2.37;;;7.10;99.90;;;;;;4997784;28;20979;-58
2021/05/15 01:46:05;;;;;;;2.57;2.13;;;7.00;99.90;;;;;;5012711;28;20436;-60
2021/05/15 01:48:31;;;;;;;2.00;1.80;;;7.00;99.90;;;;;;4999142;28;20427;-61
2021/05/15 01:51:02;;;;;;;2.17;1.83;;;7.00;99.90;;;;;;5011270;28;20435;-60
2021/05/15 01:53:29;;;;;;;2.63;2.00;;;6.90;99.90;;;;;;5005195;28;20482;-59
2021/05/15 01:55:56;;;;;;;3.07;1.67;;;6.90;99.90;;;;;;5003407;28;20873;-61
2021/05/15 01:58:22;;;;;;;2.00;1.80;;;6.90;99.90;;;;;;5007083;28;20467;-60
2021/05/15 02:00:48;;;;;;;1.70;1.60;;;6.90;99.90;;;;;;5009267;28;20783;-59
2021/05/15 02:03:14;;;;;;;1.80;1.70;;;6.90;99.90;;;;;;4994317;28;20527;-60
2021/05/15 02:05:40;;;;;;;4.30;1.70;;;6.80;99.90;;;;;;4992604;28;20413;-58
2021/05/15 02:08:06;;;;;;;4.40;1.87;;;6.80;99.90;;;;;;5005123;28;20219;-62
2021/05/15 02:10:32;;;;;;;3.43;1.60;;;6.80;99.90;;;;;;4998050;28;20680;-59
2021/05/15 02:12:58;;;;;;;1.63;1.53;;;6.70;99.90;;;;;;5000186;28;20441;-59
2021/05/15 02:15:23;;;;;;;3.63;1.70;;;6.70;99.90;;;;;;5000367;28;20192;-59
2021/05/15 02:17:49;;;;;;;2.00;1.77;;;6.70;99.90;;;;;;4993499;28;20240;-59
2021/05/15 02:20:15;;;;;;;1.93;1.83;;;6.70;99.90;;;;;;5003302;28;20184;-57
2021/05/15 02:22:41;;;;;;;2.30;1.87;;;6.70;99.90;;;;;;5005344;28;20595;-59
2021/05/15 02:25:07;;;;;;;2.30;1.90;;;6.70;99.90;;;;;;5004959;28;20719;-58
2021/05/15 02:27:33;;;;;;;2.33;2.13;;;6.70;99.90;;;;;;5003310;28;20434;-59
2021/05/15 02:29:58;;;;;;;1.60;1.50;;;6.70;99.90;;;;;;4990154;28;20400;-59
2021/05/15 02:32:24;;;;;;;1.63;1.53;;;6.60;99.90;;;;;;5005236;28;20711;-59
2021/05/15 02:34:50;;;;;;;1.80;1.70;;;6.60;99.90;;;;;;5006352;28;20208;-59
2021/05/15 02:37:15;;;;;;;2.27;2.07;;;6.60;99.90;;;;;;5002443;28;20230;-59
2021/05/15 02:39:41;;;;;;;2.37;2.17;;;6.50;99.90;;;;;;4993888;28;20188;-56
2021/05/15 02:42:07;;;;;;;2.03;1.87;;;6.50;99.90;;;;;;5001603;28;20188;-59
2021/05/15 02:44:32;;;;;;;2.40;2.20;;;6.40;99.90;;;;;;5009024;28;20250;-59
2021/05/15 02:47:01;;;;;;;2.43;1.90;;;6.40;99.90;;;;;;5005108;28;20185;-58
2021/05/15 02:49:26;;;;;;;2.30;1.60;;;6.40;99.90;;;;;;4999385;28;20267;-59
2021/05/15 02:51:52;;;;;;;1.80;1.70;;;6.30;99.90;;;;;;5018973;28;20515;-59
2021/05/15 02:54:17;;;;;;;2.20;1.40;;;6.30;99.90;;;;;;4993722;28;20223;-59
2021/05/15 02:56:43;;;;;;;2.60;1.80;;;6.20;99.90;;;;;;5005021;28;20185;-58
2021/05/15 02:59:09;;;;;;;2.23;1.60;;;6.20;99.90;;;;;;5007354;28;20188;-59
2021/05/15 03:01:34;;;;;;;1.70;1.60;;;6.10;99.90;;;;;;5007713;28;20568;-57
2021/05/15 03:04:00;;;;;;;3.07;2.10;;;6.00;99.90;;;;;;4992383;28;20216;-59
2021/05/15 03:06:25;;;;;;;1.67;1.57;;;6.00;99.90;;;;;;4994854;28;20673;-58
2021/05/15 03:08:51;;;;;;;1.90;1.80;;;5.90;99.90;;;;;;4999315;28;20181;-59
2021/05/15 03:11:17;;;;;;;2.20;1.80;;;5.90;99.90;;;;;;5015885;28;20586;-58
2021/05/15 03:13:42;;;;;;;2.57;2.10;;;5.90;99.90;;;;;;5006858;28;20386;-57
2021/05/15 03:16:08;;;;;;;2.10;1.90;;;5.80;99.90;;;;;;5002718;28;20188;-59
2021/05/15 03:18:33;;;;;;;2.07;1.80;;;5.80;99.90;;;;;;5008636;28;20180;-57
2021/05/15 03:20:59;;;;;;;3.23;1.93;;;5.80;99.90;;;;;;4997787;28;20567;-58
2021/05/15 03:23:25;;;;;;;2.70;2.03;;;5.80;99.90;;;;;;4997174;28;20294;-58
2021/05/15 03:25:51;;;;;;;2.57;2.03;;;5.80;99.90;;;;;;4994629;28;20181;-60
2021/05/15 03:28:16;;;;;;;3.50;1.80;;;5.80;99.90;;;;;;5006428;28;20184;-58
2021/05/15 03:30:42;;;;;;;3.33;1.80;;;5.80;99.90;;;;;;5011659;28;20180;-58
2021/05/15 03:33:08;;;;;;;2.00;1.80;;;5.80;99.90;;;;;;5004961;28;20558;-58
2021/05/15 03:35:33;;;;;;;10.60;4.60;;;5.80;99.90;;;;;;4995441;28;20196;-57
2021/05/15 03:37:59;;;;;;;9.90;5.70;;;5.70;99.90;;;;;;5002996;28;20184;-60
2021/05/15 03:40:25;;;;;;;7.20;4.90;;;5.70;99.90;;;;;;5004166;28;20195;-58
2021/05/15 03:42:55;;;;;;;8.47;3.33;;;5.70;99.90;;;;;;4997089;28;20569;-59
2021/05/15 03:45:20;;;;;;;5.87;3.53;;;5.70;99.90;;;;;;5007641;28;20542;-59
2021/05/15 03:47:46;;;;;;;7.90;2.63;;;5.60;99.90;;;;;;5003546;28;21676;-60
2021/05/15 03:50:13;;;;;;;3.07;2.77;;;5.60;99.90;;;;;;5009435;28;20598;-59
2021/05/15 03:52:38;;;;;;;10.40;2.60;;;5.70;99.90;;;;;;4990998;28;20239;-58
2021/05/15 03:55:05;;;;;;;2.30;2.10;;;5.60;99.90;;;;;;5006677;28;20971;-59
2021/05/15 03:57:30;;;;;;;9.40;2.07;;;5.70;99.90;;;;;;5003447;28;20646;-59
2021/05/15 03:59:57;;;;;;;2.37;1.87;;;5.70;99.90;;;;;;4997713;28;20443;-58
2021/05/15 04:02:23;;;;;;;1.93;1.83;;;5.70;99.90;;;;;;5003166;28;20211;-59
2021/05/15 04:04:52;;;;;;;2.47;1.80;;;5.70;99.90;;;;;;5006403;28;20443;-59
2021/05/15 04:07:19;;;;;;;2.00;1.83;;;5.70;99.90;;;;;;5007195;28;20443;-59
2021/05/15 04:09:45;;;;;;;3.37;1.50;;;5.70;99.90;;;;;;5001135;28;20464;-60
2021/05/15 04:12:13;;;;;;;1.60;1.50;;;5.70;99.90;;;;;;5007276;28;20422;-59
2021/05/15 04:15:34;;;;;;;2.37;1.80;;;5.60;99.90;;;;;;5004629;28;20980;-58
2021/05/15 04:17:30;;;;;;;1.60;1.50;;;5.60;99.90;;;;;;4997052;28;20444;-60
2021/05/15 04:19:57;;;;;;;1.70;1.60;;;5.50;99.90;;;;;;5000282;28;20497;-58
2021/05/15 04:22:25;;;;;;;3.80;2.03;;;5.50;99.90;;;;;;5009832;28;20838;-59
2021/05/15 04:24:51;;;;;;;1.80;1.70;;;5.50;99.90;;;;;;5007168;28;20467;-60
2021/05/15 04:27:17;;;;;;;2.07;1.87;;;5.40;99.90;;;;;;5006252;28;20467;-58
2021/05/15 04:29:44;;;;;;;3.63;1.93;;;5.40;99.90;;;;;;5010934;28;20894;-60
2021/05/15 04:32:12;;;;;;;9.23;2.27;;;5.40;99.90;;;;;;5012672;28;20209;-58
2021/05/15 04:34:38;;;;;;;3.20;1.77;;;5.50;99.90;;;;;;5002903;28;20471;-57
2021/05/15 04:37:04;;;;;;;4.57;2.33;;;5.50;99.90;;;;;;5005043;28;20812;-60
2021/05/15 04:39:30;;;;;;;2.23;2.07;;;5.60;99.90;;;;;;5004314;28;20451;-58
2021/05/15 04:41:56;;;;;;;2.30;2.10;;;5.70;99.90;;;;;;4992234;28;20187;-59
2021/05/15 04:44:22;;;;;;;2.20;2.00;;;5.80;99.90;;;;;;5004996;28;21010;-59
2021/05/15 04:46:49;;;;;;;2.17;1.97;;;5.90;99.90;;;;;;5009903;28;20471;-61
2021/05/15 04:49:15;;;;;;;2.67;1.93;;;5.90;99.90;;;;;;4998647;28;21035;-60
2021/05/15 04:51:41;;;;;;;4.13;2.30;;;6.00;99.90;;;;;;4999284;28;20460;-60
2021/05/15 04:54:08;;;;;;;2.70;2.50;;;6.00;99.90;;;;;;4996010;28;20867;-59
2021/05/15 04:56:34;;;;;;;4.60;3.93;;;6.00;99.90;;;;;;4991203;28;20479;-62
2021/05/15 04:58:59;;;;;;;2.90;2.50;;;6.00;99.90;;;;;;4994058;28;20471;-57
2021/05/15 05:01:25;;;;;;;2.50;2.00;;;6.10;99.90;;;;;;4996005;28;20213;-55
2021/05/15 05:03:51;;;;;;;3.00;2.10;;;6.10;99.90;;;;;;4999017;28;20235;-57
2021/05/15 05:06:17;;;;;;;5.53;1.93;;;6.10;99.90;;;;;;4996930;28;20513;-58
2021/05/15 05:08:43;;;;;;;1.73;1.63;;;6.10;99.90;;;;;;4997074;28;20439;-58
2021/05/15 05:11:08;;;;;;;2.10;2.00;;;6.10;99.90;;;;;;4998321;28;20534;-60
2021/05/15 05:13:34;;;;;;;2.40;1.87;;;6.10;99.90;;;;;;4992437;28;20271;-60
2021/05/15 05:16:01;;;;;;;3.10;2.10;;;6.20;99.90;;;;;;4996948;28;20191;-59
2021/05/15 05:18:27;;;;;;;2.57;2.37;;;6.20;99.90;;;;;;5000923;28;20219;-59
2021/05/15 05:20:52;;;;;;;1.90;1.70;;;6.20;99.90;;;;;;4991990;28;20774;-58
2021/05/15 05:23:18;;;;;;;2.00;1.90;;;6.20;99.90;;;;;;4994153;28;20533;-58
2021/05/15 05:25:44;;;;;;;2.43;2.10;;;6.20;99.90;;;;;;4997007;28;20836;-59
2021/05/15 05:28:13;;;;;;;1.77;1.67;;;6.20;99.90;;;;;;5014743;28;20176;-61
2021/05/15 05:30:39;;;;;;;4.70;2.37;;;6.20;99.90;;;;;;4999552;28;20271;-58
2021/05/15 05:33:04;;;;;;;5.40;2.13;;;6.30;99.90;;;;;;4996997;28;20533;-59
2021/05/15 05:35:34;;;;;;;2.30;2.20;;;6.30;99.90;;;;;;4992961;28;20207;-58
2021/05/15 05:38:00;;;;;;;5.60;2.33;;;6.30;99.90;;;;;;4991528;28;20330;-60
2021/05/15 05:40:26;;;;;;;2.37;2.17;;;6.40;99.90;;;;;;5017681;22;20432;-53
2021/05/15 05:42:51;;;;;;;2.83;2.47;;;6.50;99.90;;;;;;5018850;28;20279;-57
2021/05/15 05:45:17;;;;;;;2.70;2.47;;;6.60;99.90;;;;;;5016347;28;20168;-58
2021/05/15 05:47:43;;;;;;;2.13;1.93;;;6.70;99.90;;;;;;5017048;28;20179;-57
2021/05/15 05:50:10;;;;;;;2.83;2.37;;;6.80;99.90;;;;;;5017607;28;20581;-56
2021/05/15 05:52:36;;;;;;;3.20;2.10;;;6.80;99.90;;;;;;5018582;28;20531;-54
2021/05/15 05:55:03;;;;;;;2.30;2.20;;;6.90;99.90;;;;;;5014600;28;20942;-55
2021/05/15 05:57:29;;;;;;;2.23;2.00;;;7.00;99.90;;;;;;5023108;28;20430;-55
2021/05/15 05:59:54;;;;;;;4.83;2.63;;;7.10;99.90;;;;;;5021248;28;20482;-56
2021/05/15 06:02:20;;;;;;;3.67;2.90;;;7.20;99.90;;;;;;5021262;28;20575;-57
2021/05/15 06:04:45;;;;;;;3.63;3.33;;;7.30;99.90;;;;;;5021883;28;20332;-55
2021/05/15 06:07:13;;;;;;;4.10;3.80;;;7.40;99.90;;;;;;5020028;28;20183;-57
2021/05/15 06:09:39;;;;;;;5.47;3.87;;;7.50;99.90;;;;;;5032535;28;20562;-57
2021/05/15 06:12:05;;;;;;;8.63;2.80;;;7.60;99.90;;;;;;5016668;28;21523;-55
2021/05/15 06:14:30;;;;;;;3.00;2.73;;;7.80;99.90;;;;;;5023417;28;20435;-55
2021/05/15 06:16:56;;;;;;;3.03;2.40;;;8.00;99.90;;;;;;5020475;28;20544;-55
2021/05/15 06:19:22;;;;;;;2.30;2.13;;;8.10;99.90;;;;;;5021027;28;20172;-57
2021/05/15 06:21:48;;;;;;;4.70;2.30;;;8.20;99.90;;;;;;5019399;28;20454;-56
2021/05/15 06:24:14;;;;;;;4.80;2.40;;;8.20;99.90;;;;;;5021465;28;20269;-57
2021/05/15 06:26:39;;;;;;;3.40;2.40;;;8.30;99.90;;;;;;5021467;28;20167;-57
2021/05/15 06:29:05;;;;;;;7.53;2.60;;;8.40;99.90;;;;;;5022787;28;20505;-59
2021/05/15 06:31:30;;;;;;;4.00;2.77;;;8.60;99.90;;;;;;5016895;28;20687;-58
2021/05/15 06:33:56;;;;;;;4.80;2.77;;;8.70;99.90;;;;;;5024043;28;20187;-58
2021/05/15 06:36:22;;;;;;;2.53;2.20;;;8.80;99.90;;;;;;5020901;28;20187;-58
2021/05/15 06:38:47;;;;;;;6.20;3.97;;;8.90;99.90;;;;;;5022562;28;20802;-57
2021/05/15 06:41:13;;;;;;;12.87;4.00;;;9.00;99.90;;;;;;5024074;28;20218;-57
2021/05/15 06:43:39;;;;;;;3.10;2.40;;;9.00;99.90;;;;;;5023422;28;20253;-56
2021/05/15 06:46:05;;;;;;;7.40;3.10;;;9.10;99.90;;;;;;5019190;28;20172;-57
2021/05/15 06:48:31;;;;;;;3.17;2.27;;;9.10;99.80;;;;;;5020726;28;20480;-57
2021/05/15 06:50:56;;;;;;;3.37;2.17;;;9.30;99.90;;;;;;5023676;28;20282;-55
2021/05/15 06:53:22;;;;;;;2.30;1.50;;;9.40;99.20;;;;;;5021848;28;20203;-57
2021/05/15 06:55:48;;;;;;;1.80;1.67;;;9.50;97.70;;;;;;5019945;28;20176;-56
2021/05/15 06:58:14;;;;;;;3.17;1.67;;;9.50;97.60;;;;;;5023796;28;20180;-55
2021/05/15 07:00:40;;;;;;;6.10;1.90;;;9.50;97.10;;;;;;5022234;28;20221;-56
2021/05/15 07:03:06;;;;;;;1.60;1.50;;;9.50;96.90;;;;;;5019104;28;20457;-58
2021/05/15 07:05:33;;;;;;;2.20;1.47;;;9.60;96.80;;;;;;5013405;28;20438;-58
2021/05/15 07:08:00;;;;;;;2.00;1.53;;;9.60;96.80;;;;;;5014862;28;20438;-57
2021/05/15 07:10:26;;;;;;;3.20;1.60;;;9.80;96.40;;;;;;5015102;28;20497;-57
2021/05/15 07:12:51;;;;;;;1.63;1.50;;;10.00;95.70;;;;;;5016539;28;20867;-58
2021/05/15 07:15:17;;;;;;;1.70;1.60;;;10.30;93.20;;;;;;5012664;28;20188;-58
2021/05/15 07:17:43;;;;;;;1.73;1.60;;;10.50;93.20;;;;;;5016082;28;20291;-58
2021/05/15 07:20:09;;;;;;;2.53;1.97;;;10.60;92.40;;;;;;5014134;28;20176;-56
2021/05/15 07:22:34;;;;;;;2.00;1.67;;;10.70;91.20;;;;;;5018610;28;21003;-57
2021/05/15 07:25:00;;;;;;;2.87;1.83;;;10.70;91.00;;;;;;5019040;28;20431;-58
2021/05/15 07:27:28;;;;;;;1.60;1.30;;;10.70;91.00;;;;;;5016645;28;20207;-57
2021/05/15 07:29:56;;;;;;;2.47;2.27;;;10.70;91.00;;;;;;5017190;28;20469;-58
2021/05/15 07:32:23;;;;;;;2.77;2.23;;;10.80;92.20;;;;;;5010107;28;20818;-57
2021/05/15 07:34:48;;;;;;;2.40;1.80;;;11.00;92.50;;;;;;5019931;28;20435;-58
2021/05/15 07:37:15;;;;;;;3.00;1.83;;;11.20;90.20;;;;;;5013312;28;20499;-59
2021/05/15 07:39:42;;;;;;;2.07;1.90;;;11.30;90.70;;;;;;5013899;28;20748;-58
2021/05/15 07:42:08;;;;;;;2.17;1.40;;;11.40;89.40;;;;;;5015331;28;20458;-56
2021/05/15 07:44:34;;;;;;;1.60;1.50;;;11.30;85.80;;;;;;5015231;28;20821;-57
2021/05/15 07:47:00;;;;;;;1.50;1.30;;;11.30;87.90;;;;;;5007282;28;20179;-57
2021/05/15 07:49:26;;;;;;;2.20;1.50;;;11.30;86.60;;;;;;5001334;28;20430;-55
2021/05/15 07:51:55;;;;;;;4.73;1.80;;;11.30;85.80;;;;;;5007340;28;21926;-57
2021/05/15 07:54:22;;;;;;;1.87;1.43;;;11.20;86.50;;;;;;5012345;28;20726;-56
2021/05/15 07:56:48;;;;;;;3.03;1.50;;;11.10;84.30;;;;;;5010682;28;20433;-57
2021/05/15 07:59:14;;;;;;;3.37;1.80;;;11.00;86.80;;;;;;5009571;28;20904;-57
2021/05/15 08:01:39;;;;;;;7.13;1.60;;;10.90;87.20;;;;;;5013288;28;20828;-57
2021/05/15 08:04:06;;;;;;;1.93;1.47;;;11.00;88.40;;;;;;5013683;28;20211;-56
2021/05/15 08:06:31;;;;;;;3.53;1.50;;;11.00;87.90;;;;;;5010385;28;20199;-60
2021/05/15 08:08:57;;;;;;;3.87;1.60;;;11.10;87.10;;;;;;5016467;28;20771;-57
2021/05/15 08:11:23;;;;;;;1.57;1.47;;;11.20;84.20;;;;;;5015177;28;20196;-57
2021/05/15 08:13:48;;;;;;;1.37;1.30;;;11.30;81.50;;;;;;5013629;28;20671;-57
2021/05/15 08:16:14;;;;;;;2.80;1.40;;;11.40;80.10;;;;;;5008374;28;20183;-57
2021/05/15 08:18:44;;;;;;;1.40;1.30;;;11.50;80.30;;;;;;5008716;28;20180;-58
2021/05/15 08:21:11;;;;;;;1.70;1.60;;;11.60;79.90;;;;;;5015283;28;20742;-57
2021/05/15 08:23:38;;;;;;;2.10;1.67;;;11.60;78.90;;;;;;5017637;28;20469;-58
2021/05/15 08:26:13;;;;;;;3.50;1.53;;;11.60;77.10;;;;;;5014000;28;20439;-59
2021/05/15 08:28:46;;;;;;;4.30;1.80;;;11.50;74.80;;;;;;5015814;28;21994;-57
2021/05/15 08:31:12;;;;;;;1.40;1.30;;;11.50;75.60;;;;;;5013299;28;20533;-57
2021/05/15 08:33:38;;;;;;;1.63;1.50;;;11.60;75.80;;;;;;5013567;28;20460;-58
2021/05/15 08:36:05;;;;;;;2.90;1.47;;;11.70;76.60;;;;;;5009327;28;20726;-57
2021/05/15 08:38:31;;;;;;;7.20;1.60;;;11.80;77.20;;;;;;5016382;28;20841;-59
2021/05/15 08:40:57;;;;;;;2.53;2.23;;;11.90;77.10;;;;;;5011818;28;20466;-60
2021/05/15 08:43:26;;;;;;;4.40;2.00;;;12.00;74.40;;;;;;5022207;28;20553;-56
2021/05/15 08:45:54;;;;;;;2.60;1.33;;;12.10;72.60;;;;;;5017355;28;20195;-55
2021/05/15 08:48:21;;;;;;;4.60;1.50;;;12.30;72.40;;;;;;5018340;28;20418;-60
2021/05/15 08:50:47;;;;;;;1.57;1.30;;;12.50;67.90;;;;;;5016860;28;20458;-55
2021/05/15 08:53:13;;;;;;;5.40;1.70;;;12.60;63.00;;;;;;5016273;28;20434;-57
2021/05/15 08:55:39;;;;;;;6.40;1.50;;;12.60;60.60;;;;;;5023041;28;20444;-57
2021/05/15 08:58:06;;;;;;;4.03;1.40;;;12.70;64.80;;;;;;5022569;28;20464;-57
2021/05/15 09:00:37;;;;;;;6.40;1.40;;;12.80;63.30;;;;;;5015378;28;20246;-60
2021/05/15 09:03:07;;;;;;;4.00;1.70;;;13.00;61.00;;;;;;5011943;28;20489;-57
2021/05/15 09:05:35;;;;;;;2.60;2.10;;;13.00;60.70;;;;;;5015251;28;20435;-56
2021/05/15 09:08:02;;;;;;;2.00;1.40;;;12.90;60.90;;;;;;5016143;28;20426;-55
2021/05/15 09:10:31;;;;;;;5.43;1.87;;;13.10;61.50;;;;;;5017818;28;20998;-58
2021/05/15 09:13:12;;;;;;;1.80;1.27;;;13.40;59.80;;;;;;5013016;28;20426;-59
2021/05/15 09:15:43;;;;;;;1.60;1.50;;;13.70;57.00;;;;;;5018292;28;20438;-54
2021/05/15 09:18:09;;;;;;;4.20;1.60;;;13.80;55.00;;;;;;5014486;28;20445;-54
2021/05/15 09:20:37;;;;;;;4.00;2.40;;;13.90;55.00;;;;;;5012807;28;20504;-55
2021/05/15 09:23:33;;;;;;;7.80;2.40;;;14.00;55.70;;;;;;5018441;28;20476;-54
2021/05/15 09:26:07;;;;;;;1.40;1.30;;;14.20;53.10;;;;;;4999682;28;20466;-62
2021/05/15 09:28:41;;;;;;;3.40;1.60;;;14.40;53.20;;;;;;5017568;28;20421;-56
2021/05/15 09:31:23;;;;;;;2.90;1.53;;;14.50;52.10;;;;;;5026311;28;20454;-56
2021/05/15 09:33:52;;;;;;;2.80;1.20;;;14.50;52.50;;;;;;5016213;28;20427;-56
2021/05/15 09:36:17;;;;;;;2.10;1.57;;;14.40;50.90;;;;;;5016855;28;20438;-57
2021/05/15 09:38:44;;;;;;;4.73;1.40;;;14.30;51.00;;;;;;5025843;28;20854;-58
2021/05/15 09:41:10;;;;;;;3.03;1.30;;;14.30;51.90;;;;;;5012848;28;20656;-56
2021/05/15 09:43:36;;;;;;;2.80;1.50;;;14.10;50.90;;;;;;5015904;28;20540;-56
2021/05/15 09:46:03;;;;;;;4.57;1.37;;;13.90;51.20;;;;;;5013006;28;20450;-53
2021/05/15 09:48:38;;;;;;;5.20;1.30;;;13.60;51.10;;;;;;5011416;28;20434;-56
2021/05/15 09:51:17;;;;;;;2.23;1.57;;;13.50;52.20;;;;;;5019391;28;20738;-56
2021/05/15 09:53:44;;;;;;;3.50;1.60;;;13.70;55.80;;;;;;5020987;28;20423;-54
2021/05/15 09:56:10;;;;;;;2.70;1.20;;;14.10;52.60;;;;;;5025763;28;20426;-57
2021/05/15 09:58:37;;;;;;;4.23;1.40;;;14.30;50.10;;;;;;5027882;28;20482;-56
2021/05/15 10:01:03;;;;;;;2.23;1.20;;;14.40;50.70;;;;;;5026412;28;20457;-56
2021/05/15 10:03:32;;;;;;;3.30;1.90;;;14.70;49.00;;;;;;5027834;28;20473;-56
2021/05/15 10:06:06;;;;;;;2.67;1.80;;;14.80;49.30;;;;;;5023699;28;21036;-57
2021/05/15 10:08:34;;;;;;;2.17;1.67;;;14.80;48.80;;;;;;5029263;28;20544;-54
2021/05/15 10:11:03;;;;;;;2.00;1.13;;;14.80;46.70;;;;;;5024608;28;20945;-55
2021/05/15 10:13:30;;;;;;;5.50;1.80;;;14.70;47.70;;;;;;5023873;28;20434;-55
2021/05/15 10:15:55;;;;;;;9.00;1.67;;;14.70;48.10;;;;;;5023853;28;20431;-57
2021/05/15 10:18:21;;;;;;;4.87;1.70;;;14.80;48.10;;;;;;5022004;28;20499;-57
2021/05/15 10:20:48;;;;;;;1.53;1.43;;;14.70;47.20;;;;;;5028212;28;20278;-56
2021/05/15 10:23:27;;;;;;;2.63;1.20;;;14.70;48.40;;;;;;5028450;28;20195;-53
2021/05/15 10:26:25;;;;;;;1.83;1.20;;;15.00;48.10;;;;;;5028512;28;20573;-56
2021/05/15 10:29:03;;;;;;;2.70;1.30;;;15.20;46.60;;;;;;5023335;28;20422;-56
2021/05/15 10:31:55;;;;;;;1.90;1.20;;;15.40;45.70;;;;;;5026935;28;20442;-58
2021/05/15 10:34:30;;;;;;;2.50;1.50;;;15.40;44.80;;;;;;5025918;28;20654;-55
2021/05/15 10:36:56;;;;;;;2.60;1.57;;;15.60;46.30;;;;;;5023647;28;20440;-55
2021/05/15 10:39:33;;;;;;;1.97;1.40;;;15.80;44.90;;;;;;5012405;28;20443;-55
2021/05/15 10:42:01;;;;;;;1.10;1.00;;;15.80;43.60;;;;;;5019968;28;20265;-54
2021/05/15 10:44:39;;;;;;;4.27;1.13;;;15.70;43.30;;;;;;5024335;28;20501;-54
2021/05/15 10:47:04;;;;;;;2.17;1.30;;;15.40;44.20;;;;;;5021316;28;20522;-55
2021/05/15 10:49:30;;;;;;;6.00;1.50;;;15.20;43.60;;;;;;5026674;28;20505;-55
2021/05/15 10:52:08;;;;;;;4.60;1.17;;;15.00;43.80;;;;;;5026942;28;20555;-54
2021/05/15 10:54:36;;;;;;;4.23;1.50;;;15.00;44.60;;;;;;5023679;28;20233;-57
2021/05/15 10:57:14;;;;;;;3.20;1.50;;;14.90;44.60;;;;;;5026740;28;20462;-55
2021/05/15 10:59:53;;;;;;;4.97;1.30;;;15.00;44.60;;;;;;5024278;28;21028;-59
2021/05/15 11:02:19;;;;;;;1.80;1.10;;;15.10;45.10;;;;;;5019257;28;20463;-57
2021/05/15 11:04:52;;;;;;;2.50;1.13;;;15.20;43.50;;;;;;5020207;28;20517;-56
2021/05/15 11:07:34;;;;;;;1.30;1.00;;;15.10;43.60;;;;;;5024437;28;20172;-57
2021/05/15 11:10:08;;;;;;;1.70;1.10;;;15.00;43.60;;;;;;5025538;28;20442;-54
2021/05/15 11:12:46;;;;;;;4.80;1.20;;;15.00;44.20;;;;;;5025985;28;20450;-56
2021/05/15 11:15:17;;;;;;;1.80;1.10;;;15.10;43.00;;;;;;5017858;28;20426;-56
2021/05/15 11:17:43;;;;;;;4.43;1.10;;;15.20;42.80;;;;;;5022531;28;20449;-56
2021/05/15 11:20:19;;;;;;;3.63;1.17;;;15.30;42.60;;;;;;5016139;28;20434;-55
2021/05/15 11:22:51;;;;;;;1.17;1.07;;;15.20;41.70;;;;;;5017393;28;20419;-55
2021/05/15 11:25:29;;;;;;;2.50;0.90;;;15.10;42.60;;;;;;5023814;28;20489;-55
2021/05/15 11:27:56;;;;;;;1.73;1.10;;;15.00;41.80;;;;;;5027907;28;20502;-55
2021/05/15 11:30:24;;;;;;;3.43;1.03;;;14.80;41.90;;;;;;5014436;28;20431;-55
2021/05/15 11:33:01;;;;;;;2.67;1.23;;;14.60;43.10;;;;;;5014560;28;20446;-57
2021/05/15 11:35:29;;;;;;;4.93;1.30;;;14.40;43.50;;;;;;5023985;28;20445;-55
2021/05/15 11:38:07;;;;;;;2.60;1.20;;;14.40;44.20;;;;;;5021295;28;20435;-56
2021/05/15 11:40:39;;;;;;;2.10;1.80;;;14.40;44.70;;;;;;5022471;28;20434;-56
2021/05/15 11:43:06;;;;;;;1.43;1.10;;;14.40;44.90;;;;;;5036349;22;20483;-61
2021/05/15 11:45:33;;;;;;;1.93;1.10;;;14.40;45.00;;;;;;5014552;28;20846;-59
2021/05/15 11:48:22;;;;;;;1.20;1.10;;;14.30;44.70;;;;;;5019393;28;20450;-61
2021/05/15 11:51:18;;;;;;;1.63;1.00;;;14.30;45.20;;;;;;5025764;28;20426;-61
2021/05/15 11:53:52;;;;;;;2.10;1.30;;;14.20;44.00;;;;;;5003997;28;20439;-60
2021/05/15 11:56:20;;;;;;;1.70;1.33;;;14.00;44.10;;;;;;5000559;28;20462;-60
2021/05/15 11:58:51;;;;;;;4.23;1.40;;;14.00;45.20;;;;;;5004521;28;20435;-60
2021/05/15 12:01:28;;;;;;;1.37;1.27;;;14.00;45.90;;;;;;5004974;28;21015;-60
2021/05/15 12:04:30;;;;;;;2.07;1.47;;;14.00;47.10;;;;;;5001112;28;20469;-60
2021/05/15 12:06:58;;;;;;;2.70;1.20;;;14.00;47.10;;;;;;5003926;28;20429;-61
2021/05/15 12:09:27;;;;;;;1.83;1.30;;;14.00;45.90;;;;;;4996536;28;20435;-61
2021/05/15 12:12:07;;;;;;;1.50;1.40;;;14.10;45.80;;;;;;5009564;28;20474;-61
2021/05/15 12:14:33;;;;;;;2.80;1.47;;;14.20;46.30;;;;;;5008665;28;20801;-61
2021/05/15 12:17:07;;;;;;;1.83;1.23;;;14.30;46.50;;;;;;5009589;28;20435;-59
2021/05/15 12:19:33;;;;;;;3.80;1.63;;;14.30;46.20;;;;;;5011133;28;20434;-60
2021/05/15 12:22:05;;;;;;;2.97;1.67;;;14.30;46.00;;;;;;5012828;28;20459;-61
2021/05/15 12:24:36;;;;;;;1.77;1.20;;;14.30;45.00;;;;;;5008719;28;20831;-61
2021/05/15 12:27:14;;;;;;;3.10;1.47;;;14.20;45.70;;;;;;5002127;28;20432;-61
2021/05/15 12:29:44;;;;;;;5.57;2.90;;;14.20;45.50;;;;;;5011297;28;20430;-59
2021/05/15 12:32:10;;;;;;;1.83;1.40;;;14.20;45.70;;;;;;5004213;28;20497;-60
2021/05/15 12:34:37;;;;;;;3.83;1.30;;;14.20;46.20;;;;;;5000996;28;20724;-60
2021/05/15 12:37:16;;;;;;;1.40;1.30;;;14.40;46.50;;;;;;5002571;28;20199;-60
2021/05/15 12:39:42;;;;;;;2.23;1.30;;;14.60;46.00;;;;;;5010647;28;20431;-60
2021/05/15 12:42:07;;;;;;;1.33;1.03;;;14.70;45.10;;;;;;5003591;28;20729;-60
2021/05/15 12:44:41;;;;;;;1.63;1.07;;;14.70;44.10;;;;;;5002924;28;20215;-61
2021/05/15 12:47:07;;;;;;;2.43;1.33;;;14.60;44.20;;;;;;5002685;28;20177;-61
2021/05/15 12:49:39;;;;;;;1.33;1.17;;;14.50;44.50;;;;;;5006644;28;20481;-60
2021/05/15 12:52:14;;;;;;;1.53;1.10;;;14.40;45.00;;;;;;5013209;28;20454;-61
2021/05/15 12:54:40;;;;;;;1.67;1.37;;;14.30;44.20;;;;;;5012117;28;20977;-61
2021/05/15 12:57:06;;;;;;;2.30;1.50;;;14.20;44.50;;;;;;5006918;28;20440;-61
2021/05/15 12:59:33;;;;;;;1.30;1.20;;;14.00;44.70;;;;;;5004291;28;20935;-61